Time;durP1;ratioP1;P1;durP2;ratioP2;P2;SDS_P1;SDS_P2;PMS_P1;PMS_P2;Temp;Humidity;BMP_temperature;BMP_pressure;BME280_temperature;BME280_humidity;BME280_pressure;Samples;Min_cycle;Max_cycle;Signal;HPM_P1;HPM_P2
2023/08/10 00:00:12;;;;;;;0.10;0.10;;;13.80;99.90;;;;;;5100144;27;20039;-69
2023/08/10 00:02:39;;;;;;;0.00;0.00;;;13.80;99.90;;;;;;5105026;27;20509;-69
2023/08/10 00:05:05;;;;;;;0.00;0.00;;;13.80;99.90;;;;;;5110163;27;20043;-69
2023/08/10 00:07:31;;;;;;;0.63;0.63;;;13.80;99.90;;;;;;5102449;27;20032;-69
2023/08/10 00:09:57;;;;;;;0.00;0.00;;;13.80;99.90;;;;;;5102606;27;20512;-68
2023/08/10 00:12:23;;;;;;;0.00;0.00;;;13.80;99.90;;;;;;5100521;27;20036;-69
2023/08/10 00:14:48;;;;;;;0.00;0.00;;;13.80;99.90;;;;;;5099800;27;20031;-68
2023/08/10 00:17:18;;;;;;;0.00;0.00;;;13.80;99.90;;;;;;5098439;28;20038;-69
2023/08/10 00:19:44;;;;;;;0.10;0.10;;;13.80;99.90;;;;;;5103977;27;20035;-69
2023/08/10 00:22:10;;;;;;;0.10;0.10;;;13.70;99.90;;;;;;5104836;27;20035;-69
2023/08/10 00:24:36;;;;;;;0.00;0.00;;;13.70;99.90;;;;;;5106629;28;20031;-69
2023/08/10 00:27:03;;;;;;;0.75;0.73;;;13.70;99.90;;;;;;5101409;27;20032;-69
2023/08/10 00:29:28;;;;;;;0.00;0.00;;;13.70;99.90;;;;;;5123740;27;20043;-68
2023/08/10 00:31:54;;;;;;;0.10;0.10;;;13.70;99.90;;;;;;5090768;27;20410;-69
2023/08/10 00:34:20;;;;;;;0.10;0.10;;;13.70;99.90;;;;;;5118724;27;20035;-69
2023/08/10 00:36:45;;;;;;;1.65;0.43;;;13.70;99.90;;;;;;5103993;27;20084;-69
2023/08/10 00:39:11;;;;;;;0.10;0.10;;;13.70;99.90;;;;;;5094460;27;20505;-69
2023/08/10 00:41:38;;;;;;;0.08;0.08;;;13.60;99.90;;;;;;5101168;27;20074;-69
2023/08/10 00:44:04;;;;;;;0.10;0.10;;;13.70;99.90;;;;;;5101659;27;20124;-69
2023/08/10 00:46:31;;;;;;;0.10;0.10;;;13.60;99.90;;;;;;5118961;27;20113;-69
2023/08/10 00:48:57;;;;;;;0.00;0.00;;;13.70;99.90;;;;;;5116347;27;20062;-69
2023/08/10 00:51:24;;;;;;;0.03;0.03;;;13.60;99.90;;;;;;5098634;27;20036;-69
2023/08/10 00:53:49;;;;;;;0.00;0.00;;;13.60;99.90;;;;;;5103188;27;20040;-69
2023/08/10 00:56:16;;;;;;;0.00;0.00;;;13.60;99.90;;;;;;5103565;27;20428;-69
2023/08/10 00:58:42;;;;;;;0.00;0.00;;;13.60;99.90;;;;;;5100206;28;20043;-70
2023/08/10 01:01:07;;;;;;;0.20;0.20;;;13.60;99.90;;;;;;5105872;27;21813;-69
2023/08/10 01:03:33;;;;;;;1.08;0.20;;;13.60;99.90;;;;;;5103940;27;20042;-69
2023/08/10 01:06:23;;;;;;;0.10;0.10;;;13.60;99.90;;;;;;5103656;27;20080;-69
2023/08/10 01:09:38;;;;;;;0.00;0.00;;;13.60;99.90;;;;;;5104595;27;20543;-69
2023/08/10 01:12:32;;;;;;;0.28;0.10;;;13.60;99.90;;;;;;5072026;27;20123;-69
2023/08/10 01:15:19;;;;;;;0.20;0.20;;;13.60;99.90;;;;;;5102910;27;20656;-69
2023/08/10 01:17:51;;;;;;;0.00;0.00;;;13.60;99.90;;;;;;5103044;28;20042;-68
2023/08/10 01:20:20;;;;;;;0.10;0.10;;;13.60;99.90;;;;;;5098734;27;20046;-68
2023/08/10 01:22:53;;;;;;;0.08;0.08;;;13.60;99.90;;;;;;5106248;27;20051;-69
2023/08/10 01:25:20;;;;;;;0.20;0.10;;;13.60;99.90;;;;;;5099279;27;20602;-70
2023/08/10 01:27:46;;;;;;;0.00;0.00;;;13.60;99.90;;;;;;5133371;27;20118;-70
2023/08/10 01:30:12;;;;;;;0.13;0.10;;;13.60;99.90;;;;;;5103405;27;20122;-69
2023/08/10 01:32:38;;;;;;;1.38;0.38;;;13.60;99.90;;;;;;5109529;27;20035;-68
2023/08/10 01:35:06;;;;;;;0.10;0.10;;;13.60;99.90;;;;;;5101542;27;20036;-68
2023/08/10 01:37:33;;;;;;;0.35;0.35;;;13.50;99.90;;;;;;5103550;27;20054;-69
2023/08/10 01:40:13;;;;;;;0.10;0.10;;;13.50;99.90;;;;;;5129292;27;20071;-69
2023/08/10 01:42:41;;;;;;;0.13;0.10;;;13.50;99.90;;;;;;5122405;27;20498;-69
2023/08/10 01:45:07;;;;;;;1.58;0.60;;;13.50;99.90;;;;;;5110771;27;20172;-68
2023/08/10 01:47:49;;;;;;;1.02;0.70;;;13.50;99.90;;;;;;5104060;27;20139;-68
2023/08/10 01:50:17;;;;;;;0.20;0.20;;;13.50;99.90;;;;;;5100842;27;20495;-68
2023/08/10 01:52:50;;;;;;;0.00;0.00;;;13.50;99.90;;;;;;5103755;27;20125;-68
2023/08/10 01:55:17;;;;;;;0.28;0.28;;;13.50;99.90;;;;;;5106407;27;20516;-69
2023/08/10 01:57:44;;;;;;;0.50;0.50;;;13.40;99.90;;;;;;5085904;27;20040;-69
2023/08/10 02:00:12;;;;;;;0.05;0.03;;;13.40;99.90;;;;;;5104652;28;20038;-69
2023/08/10 02:02:38;;;;;;;0.00;0.00;;;13.40;99.90;;;;;;5098006;28;20047;-69
2023/08/10 02:05:05;;;;;;;0.00;0.00;;;13.40;99.90;;;;;;5102148;27;20379;-69
2023/08/10 02:07:31;;;;;;;0.00;0.00;;;13.40;99.90;;;;;;5115407;28;20051;-70
2023/08/10 02:09:57;;;;;;;0.00;0.00;;;13.30;99.90;;;;;;5096798;28;20390;-70
2023/08/10 02:12:23;;;;;;;0.25;0.15;;;13.30;99.90;;;;;;5098829;28;20051;-70
2023/08/10 02:14:49;;;;;;;0.10;0.10;;;13.30;99.90;;;;;;5129757;27;20067;-70
2023/08/10 02:17:16;;;;;;;0.15;0.03;;;13.20;99.90;;;;;;5092881;28;20027;-70
2023/08/10 02:19:41;;;;;;;0.05;0.05;;;13.20;99.90;;;;;;5132878;27;20046;-70
2023/08/10 02:22:07;;;;;;;0.73;0.73;;;13.10;99.90;;;;;;5116507;27;20032;-70
2023/08/10 02:24:33;;;;;;;0.05;0.05;;;13.10;99.90;;;;;;5102524;28;20032;-70
2023/08/10 02:26:59;;;;;;;1.35;0.68;;;13.10;99.90;;;;;;5101918;28;20123;-70
2023/08/10 02:29:24;;;;;;;0.20;0.20;;;13.00;99.90;;;;;;5098354;28;20032;-70
2023/08/10 02:31:50;;;;;;;0.40;0.30;;;13.00;99.90;;;;;;5100545;28;20039;-70
2023/08/10 02:34:16;;;;;;;0.10;0.10;;;13.00;99.90;;;;;;5115043;28;20042;-70
2023/08/10 02:36:41;;;;;;;0.55;0.10;;;13.00;99.90;;;;;;5101256;28;20066;-70
2023/08/10 02:39:07;;;;;;;0.10;0.10;;;13.00;99.90;;;;;;5100053;28;20120;-70
2023/08/10 02:41:32;;;;;;;0.10;0.10;;;13.00;99.90;;;;;;5113097;28;20491;-70
2023/08/10 02:43:58;;;;;;;0.20;0.20;;;13.00;99.90;;;;;;5104013;28;20039;-70
2023/08/10 02:46:24;;;;;;;0.00;0.00;;;13.00;99.90;;;;;;5102312;28;20035;-70
2023/08/10 02:48:50;;;;;;;0.00;0.00;;;13.00;99.90;;;;;;5100584;28;20046;-70
2023/08/10 02:51:15;;;;;;;0.10;0.10;;;13.00;99.90;;;;;;5115250;28;20379;-70
2023/08/10 02:53:43;;;;;;;0.00;0.00;;;13.00;99.90;;;;;;5094933;28;20046;-70
2023/08/10 02:56:09;;;;;;;0.10;0.10;;;13.00;99.90;;;;;;5101505;28;20084;-70
2023/08/10 02:58:34;;;;;;;0.10;0.10;;;13.00;99.90;;;;;;5099819;28;20040;-70
2023/08/10 03:01:08;;;;;;;1.38;0.13;;;13.00;99.90;;;;;;5099743;28;20078;-69
2023/08/10 03:03:34;;;;;;;1.08;0.20;;;13.00;99.90;;;;;;5104571;28;20130;-69
2023/08/10 03:06:01;;;;;;;0.00;0.00;;;13.00;99.90;;;;;;5104780;28;20035;-69
2023/08/10 03:08:27;;;;;;;0.13;0.10;;;13.00;99.90;;;;;;5110500;27;20043;-69
2023/08/10 03:10:53;;;;;;;0.00;0.00;;;12.90;99.90;;;;;;5136926;27;20031;-69
2023/08/10 03:13:19;;;;;;;0.30;0.13;;;12.90;99.90;;;;;;5107487;27;20027;-69
2023/08/10 03:15:44;;;;;;;0.10;0.10;;;12.90;99.90;;;;;;5134891;27;20062;-69
2023/08/10 03:18:10;;;;;;;0.10;0.10;;;12.90;99.90;;;;;;5103472;27;20074;-69
2023/08/10 03:20:35;;;;;;;0.10;0.10;;;12.90;99.90;;;;;;5103330;27;20131;-69
2023/08/10 03:23:01;;;;;;;0.00;0.00;;;12.90;99.90;;;;;;5135199;27;20039;-69
2023/08/10 03:25:27;;;;;;;0.08;0.08;;;12.90;99.90;;;;;;5104278;27;20040;-69
2023/08/10 03:27:53;;;;;;;0.00;0.00;;;12.90;99.90;;;;;;5100823;27;20064;-69
2023/08/10 03:30:19;;;;;;;0.20;0.20;;;12.90;99.90;;;;;;5150063;27;20035;-69
2023/08/10 03:32:44;;;;;;;0.10;0.10;;;12.90;99.90;;;;;;5095126;27;20038;-69
2023/08/10 03:35:11;;;;;;;0.10;0.10;;;12.90;99.90;;;;;;5115188;27;20031;-69
2023/08/10 03:37:37;;;;;;;0.00;0.00;;;12.90;99.90;;;;;;5122790;27;20393;-69
2023/08/10 03:40:03;;;;;;;0.00;0.00;;;13.00;99.90;;;;;;5114716;27;20035;-69
2023/08/10 03:42:29;;;;;;;0.10;0.10;;;13.00;99.90;;;;;;5115923;27;20050;-70
2023/08/10 03:44:55;;;;;;;0.10;0.10;;;13.00;99.90;;;;;;5123904;27;20509;-69
2023/08/10 03:47:22;;;;;;;0.10;0.10;;;13.00;99.90;;;;;;5096824;28;20038;-70
2023/08/10 03:49:48;;;;;;;0.40;0.30;;;13.00;99.90;;;;;;5107023;27;20386;-69
2023/08/10 03:52:13;;;;;;;0.00;0.00;;;13.00;99.90;;;;;;5102654;28;20031;-69
2023/08/10 03:54:39;;;;;;;0.20;0.20;;;13.00;99.90;;;;;;5137206;27;20430;-69
2023/08/10 03:57:05;;;;;;;0.10;0.10;;;13.00;99.90;;;;;;5098806;27;20047;-69
2023/08/10 03:59:30;;;;;;;0.00;0.00;;;12.90;99.90;;;;;;5109559;27;20054;-69
2023/08/10 04:01:56;;;;;;;0.10;0.10;;;12.90;99.90;;;;;;5110253;27;20047;-69
2023/08/10 04:04:21;;;;;;;0.15;0.15;;;12.80;99.90;;;;;;5109039;27;20500;-69
2023/08/10 04:06:47;;;;;;;0.25;0.25;;;12.80;99.90;;;;;;5102977;27;20035;-70
2023/08/10 04:09:13;;;;;;;0.20;0.20;;;12.80;99.90;;;;;;5109336;28;20108;-69
2023/08/10 04:11:39;;;;;;;0.43;0.30;;;12.90;99.90;;;;;;5103378;27;20390;-69
2023/08/10 04:14:05;;;;;;;0.00;0.00;;;12.90;99.90;;;;;;5119591;27;20070;-69
2023/08/10 04:16:31;;;;;;;0.00;0.00;;;12.90;99.90;;;;;;5113901;27;20081;-69
2023/08/10 04:18:57;;;;;;;0.10;0.10;;;13.00;99.90;;;;;;5120096;27;20444;-69
2023/08/10 04:21:23;;;;;;;0.10;0.10;;;13.00;99.90;;;;;;5095824;27;20035;-69
2023/08/10 04:23:49;;;;;;;0.10;0.10;;;13.00;99.90;;;;;;5099478;28;20035;-69
2023/08/10 04:26:14;;;;;;;0.30;0.30;;;13.10;99.90;;;;;;5110086;27;20115;-69
2023/08/10 04:28:41;;;;;;;0.10;0.10;;;13.10;99.90;;;;;;5113693;27;20027;-69
2023/08/10 04:31:07;;;;;;;0.10;0.10;;;13.10;99.90;;;;;;5147317;27;20044;-69
2023/08/10 04:33:33;;;;;;;0.00;0.00;;;13.10;99.90;;;;;;5113506;27;20036;-69
2023/08/10 04:35:59;;;;;;;0.00;0.00;;;13.10;99.90;;;;;;5104638;27;20043;-69
2023/08/10 04:38:25;;;;;;;0.15;0.15;;;13.20;99.90;;;;;;5103401;28;20044;-69
2023/08/10 04:40:50;;;;;;;0.00;0.00;;;13.20;99.90;;;;;;5112368;27;20054;-69
2023/08/10 04:43:16;;;;;;;0.10;0.10;;;13.20;99.90;;;;;;5113259;27;20035;-69
2023/08/10 04:45:42;;;;;;;0.10;0.10;;;13.20;99.90;;;;;;5098246;28;20106;-69
2023/08/10 04:48:10;;;;;;;1.10;0.20;;;13.30;99.90;;;;;;5113935;27;20091;-69
2023/08/10 04:50:35;;;;;;;0.32;0.20;;;13.30;99.90;;;;;;5110996;27;20100;-69
2023/08/10 04:53:02;;;;;;;0.10;0.10;;;13.30;99.90;;;;;;5101437;27;20205;-69
2023/08/10 04:55:28;;;;;;;0.10;0.10;;;13.30;99.90;;;;;;5104270;27;20096;-69
2023/08/10 04:57:53;;;;;;;0.10;0.10;;;13.30;99.90;;;;;;5108731;27;20055;-69
2023/08/10 05:00:19;;;;;;;0.00;0.00;;;13.40;99.90;;;;;;5101323;27;20473;-69
2023/08/10 05:02:45;;;;;;;0.00;0.00;;;13.40;99.90;;;;;;5130279;27;20046;-69
2023/08/10 05:05:11;;;;;;;0.00;0.00;;;13.40;99.90;;;;;;5102287;27;20590;-69
2023/08/10 05:07:37;;;;;;;0.10;0.10;;;13.40;99.90;;;;;;5098688;27;20126;-69
2023/08/10 05:10:05;;;;;;;0.00;0.00;;;13.50;99.90;;;;;;5101383;27;20375;-69
2023/08/10 05:12:31;;;;;;;0.10;0.10;;;13.50;99.90;;;;;;5101371;27;20497;-69
2023/08/10 05:14:57;;;;;;;3.72;0.30;;;13.50;99.90;;;;;;5100843;27;20031;-69
2023/08/10 05:17:23;;;;;;;0.20;0.20;;;13.60;99.90;;;;;;5105745;27;20137;-69
2023/08/10 05:19:48;;;;;;;0.00;0.00;;;13.60;99.90;;;;;;5139065;27;20457;-69
2023/08/10 05:22:14;;;;;;;0.00;0.00;;;13.60;99.90;;;;;;5103187;27;20035;-69
2023/08/10 05:24:40;;;;;;;0.10;0.10;;;13.70;99.90;;;;;;5105362;27;20065;-69
2023/08/10 05:27:06;;;;;;;0.00;0.00;;;13.70;99.90;;;;;;5086226;27;20039;-69
2023/08/10 05:29:31;;;;;;;0.10;0.10;;;13.70;99.90;;;;;;5100862;28;20099;-69
2023/08/10 05:31:57;;;;;;;0.10;0.00;;;13.80;99.90;;;;;;5107052;27;20034;-69
2023/08/10 05:34:23;;;;;;;0.38;0.25;;;13.90;99.90;;;;;;5097393;28;20482;-70
2023/08/10 05:36:48;;;;;;;0.00;0.00;;;14.00;99.90;;;;;;5119501;27;20405;-69
2023/08/10 05:39:14;;;;;;;0.10;0.10;;;14.00;99.90;;;;;;5101057;27;21033;-69
2023/08/10 05:41:39;;;;;;;0.73;0.73;;;14.00;99.90;;;;;;5102543;27;20039;-69
2023/08/10 05:44:05;;;;;;;0.43;0.28;;;14.10;99.90;;;;;;5105548;28;20050;-69
2023/08/10 05:46:31;;;;;;;0.17;0.10;;;14.10;99.90;;;;;;5099221;27;20100;-69
2023/08/10 05:48:57;;;;;;;0.10;0.10;;;14.20;99.90;;;;;;5088297;27;20032;-69
2023/08/10 05:51:22;;;;;;;0.10;0.10;;;14.20;99.90;;;;;;5102671;27;20038;-69
2023/08/10 05:53:48;;;;;;;0.10;0.10;;;14.30;99.90;;;;;;5105525;27;20171;-69
2023/08/10 05:56:14;;;;;;;2.00;0.10;;;14.30;99.90;;;;;;5098731;27;20063;-69
2023/08/10 05:58:40;;;;;;;0.13;0.13;;;14.40;99.90;;;;;;5139040;27;20035;-69
2023/08/10 06:01:05;;;;;;;0.35;0.35;;;14.40;99.90;;;;;;5105870;28;20035;-70
2023/08/10 06:03:32;;;;;;;0.43;0.20;;;14.50;99.90;;;;;;5103708;28;20074;-69
2023/08/10 06:06:00;;;;;;;0.15;0.15;;;14.60;99.90;;;;;;5134510;27;20509;-69
2023/08/10 06:08:26;;;;;;;0.10;0.10;;;14.70;99.90;;;;;;5108930;27;20043;-69
2023/08/10 06:10:51;;;;;;;0.20;0.20;;;14.70;99.90;;;;;;5102046;28;20039;-69
2023/08/10 06:13:20;;;;;;;0.00;0.00;;;14.80;99.90;;;;;;5102663;27;20136;-69
2023/08/10 06:15:48;;;;;;;0.20;0.20;;;14.90;99.90;;;;;;5096027;28;20051;-69
2023/08/10 06:18:14;;;;;;;0.10;0.10;;;15.00;99.90;;;;;;5118246;27;20498;-69
2023/08/10 06:20:40;;;;;;;0.00;0.00;;;15.10;99.90;;;;;;5102802;28;20250;-69
2023/08/10 06:23:06;;;;;;;0.00;0.00;;;15.10;99.90;;;;;;5105712;28;20165;-69
2023/08/10 06:25:32;;;;;;;0.82;0.82;;;15.20;99.90;;;;;;5102486;28;20043;-69
2023/08/10 06:27:58;;;;;;;0.10;0.10;;;15.20;99.90;;;;;;5119327;28;20031;-70
2023/08/10 06:30:25;;;;;;;0.30;0.30;;;15.30;99.90;;;;;;5102828;28;20043;-69
2023/08/10 06:32:51;;;;;;;0.10;0.10;;;15.30;99.90;;;;;;5096725;28;20046;-69
2023/08/10 06:35:18;;;;;;;0.10;0.10;;;15.40;99.90;;;;;;5105508;28;20043;-69
2023/08/10 06:37:44;;;;;;;1.08;0.30;;;15.50;99.90;;;;;;5100846;28;20036;-69
2023/08/10 06:40:11;;;;;;;0.15;0.15;;;15.50;99.90;;;;;;5103081;28;20048;-69
2023/08/10 06:42:37;;;;;;;0.10;0.10;;;15.60;99.90;;;;;;5133483;27;20124;-71
2023/08/10 06:45:06;;;;;;;0.20;0.20;;;15.70;99.90;;;;;;5106274;27;20083;-70
2023/08/10 06:47:31;;;;;;;2.20;0.75;;;15.70;99.90;;;;;;5102574;27;20035;-71
2023/08/10 06:49:58;;;;;;;0.17;0.17;;;15.70;99.90;;;;;;5103359;27;20046;-70
2023/08/10 06:52:24;;;;;;;0.15;0.13;;;15.80;99.90;;;;;;5105522;27;20039;-70
2023/08/10 06:54:52;;;;;;;0.52;0.47;;;15.80;99.90;;;;;;5132313;27;20036;-70
2023/08/10 06:57:19;;;;;;;0.28;0.20;;;15.90;99.90;;;;;;5139710;27;20400;-70
2023/08/10 06:59:45;;;;;;;0.30;0.30;;;15.90;99.90;;;;;;5098518;27;20039;-70
2023/08/10 07:02:10;;;;;;;0.20;0.20;;;15.90;99.90;;;;;;5107393;27;20175;-70
2023/08/10 07:04:36;;;;;;;0.00;0.00;;;15.90;99.90;;;;;;5103256;27;20050;-71
2023/08/10 07:07:01;;;;;;;0.10;0.10;;;16.10;99.90;;;;;;5105888;27;20047;-71
2023/08/10 07:09:27;;;;;;;0.28;0.20;;;16.10;99.90;;;;;;5122755;27;20046;-70
2023/08/10 07:11:53;;;;;;;0.20;0.20;;;16.10;99.90;;;;;;5101294;27;20036;-70
2023/08/10 07:14:19;;;;;;;0.00;0.00;;;16.10;99.90;;;;;;5110856;27;20542;-70
2023/08/10 07:16:45;;;;;;;0.00;0.00;;;16.20;99.90;;;;;;5109317;27;20041;-70
2023/08/10 07:19:11;;;;;;;0.38;0.38;;;16.20;99.90;;;;;;5110026;27;20039;-69
2023/08/10 07:21:36;;;;;;;0.20;0.20;;;16.30;99.90;;;;;;5124189;27;20039;-69
2023/08/10 07:24:05;;;;;;;0.45;0.13;;;16.30;99.90;;;;;;5108278;27;20059;-69
2023/08/10 07:26:31;;;;;;;0.25;0.17;;;16.30;99.90;;;;;;5110930;27;20123;-70
2023/08/10 07:28:57;;;;;;;1.33;1.13;;;16.40;99.90;;;;;;5100169;27;20073;-69
2023/08/10 07:31:26;;;;;;;1.75;0.38;;;16.50;99.90;;;;;;5100827;27;20055;-68
2023/08/10 07:33:51;;;;;;;0.00;0.00;;;16.60;99.90;;;;;;5103957;27;20092;-69
2023/08/10 07:36:17;;;;;;;1.67;1.05;;;16.60;99.90;;;;;;5100042;27;20043;-69
2023/08/10 07:38:43;;;;;;;0.20;0.20;;;16.70;99.90;;;;;;5107555;27;20039;-69
2023/08/10 07:41:08;;;;;;;0.10;0.10;;;16.80;99.90;;;;;;5095962;27;20036;-69
2023/08/10 07:43:34;;;;;;;0.30;0.30;;;16.80;99.90;;;;;;5135079;27;20069;-69
2023/08/10 07:46:00;;;;;;;0.20;0.10;;;16.80;99.90;;;;;;5113747;27;20039;-69
2023/08/10 07:48:26;;;;;;;0.10;0.10;;;16.80;99.90;;;;;;5100757;28;20035;-69
2023/08/10 07:50:52;;;;;;;0.00;0.00;;;16.90;99.90;;;;;;5114099;27;20418;-69
2023/08/10 07:53:18;;;;;;;0.10;0.10;;;16.90;99.90;;;;;;5123386;27;20039;-69
2023/08/10 07:55:43;;;;;;;0.10;0.10;;;16.90;99.90;;;;;;5115705;27;20031;-69
2023/08/10 07:58:09;;;;;;;0.80;0.15;;;16.90;99.90;;;;;;5115354;27;20099;-69
2023/08/10 08:00:38;;;;;;;0.03;0.03;;;16.90;99.90;;;;;;5102830;27;20064;-69
2023/08/10 08:03:04;;;;;;;0.35;0.35;;;17.00;99.90;;;;;;5095739;28;20112;-68
2023/08/10 08:05:30;;;;;;;0.10;0.10;;;17.00;99.90;;;;;;5105465;27;20432;-69
2023/08/10 08:07:55;;;;;;;0.20;0.17;;;17.10;99.90;;;;;;5115670;27;20236;-68
2023/08/10 08:10:21;;;;;;;0.10;0.10;;;17.20;99.90;;;;;;5114227;27;20039;-69
2023/08/10 08:12:47;;;;;;;0.05;0.05;;;17.20;99.90;;;;;;5107708;28;20036;-70
2023/08/10 08:15:13;;;;;;;0.03;0.03;;;17.30;99.90;;;;;;5141750;27;20039;-69
2023/08/10 08:18:17;;;;;;;0.08;0.08;;;17.30;99.90;;;;;;5114240;27;20452;-69
2023/08/10 08:20:43;;;;;;;0.17;0.17;;;17.30;99.90;;;;;;5104504;28;20039;-69
2023/08/10 08:23:08;;;;;;;0.30;0.22;;;17.40;99.90;;;;;;5104017;27;20104;-69
2023/08/10 08:25:34;;;;;;;0.20;0.13;;;17.40;99.90;;;;;;5114732;27;20599;-69
2023/08/10 08:27:59;;;;;;;0.10;0.10;;;17.50;99.90;;;;;;5112185;27;20038;-69
2023/08/10 08:30:27;;;;;;;0.20;0.20;;;17.50;99.90;;;;;;5102090;28;20497;-69
2023/08/10 08:32:53;;;;;;;0.20;0.20;;;17.60;99.90;;;;;;5128585;27;20044;-68
2023/08/10 08:35:19;;;;;;;0.32;0.30;;;17.70;99.90;;;;;;5114268;27;20443;-69
2023/08/10 08:37:45;;;;;;;0.10;0.10;;;17.80;99.90;;;;;;5111554;27;20039;-69
2023/08/10 08:40:11;;;;;;;0.10;0.10;;;17.80;99.90;;;;;;5103124;27;20374;-69
2023/08/10 08:42:37;;;;;;;0.10;0.10;;;17.90;99.90;;;;;;5102811;27;20108;-68
2023/08/10 08:45:04;;;;;;;0.10;0.10;;;18.00;99.90;;;;;;5106602;27;20039;-69
2023/08/10 08:47:29;;;;;;;0.85;0.10;;;18.10;99.90;;;;;;5097303;28;20054;-69
2023/08/10 08:49:56;;;;;;;0.00;0.00;;;18.10;99.90;;;;;;5103940;27;20043;-69
2023/08/10 08:52:21;;;;;;;0.47;0.45;;;18.20;99.90;;;;;;5101883;27;20058;-68
2023/08/10 08:54:50;;;;;;;0.10;0.10;;;18.30;99.90;;;;;;5101191;27;20670;-68
2023/08/10 08:57:15;;;;;;;0.63;0.63;;;18.30;99.90;;;;;;5102472;27;20409;-69
2023/08/10 08:59:41;;;;;;;0.20;0.20;;;18.30;99.90;;;;;;5097885;27;20044;-68
2023/08/10 09:02:10;;;;;;;0.57;0.28;;;18.20;99.90;;;;;;5099198;27;20042;-69
2023/08/10 09:04:35;;;;;;;0.25;0.22;;;18.10;99.90;;;;;;5104831;27;20041;-69
2023/08/10 09:07:01;;;;;;;0.08;0.08;;;18.00;99.90;;;;;;5098433;27;20043;-69
2023/08/10 09:09:27;;;;;;;0.25;0.10;;;18.00;99.90;;;;;;5135405;27;20558;-69
2023/08/10 09:11:53;;;;;;;0.22;0.17;;;18.10;99.90;;;;;;5101017;27;20466;-68
2023/08/10 09:14:18;;;;;;;0.00;0.00;;;18.10;99.90;;;;;;5109963;27;20099;-68
2023/08/10 09:16:45;;;;;;;0.17;0.17;;;18.20;99.90;;;;;;5113833;27;20053;-68
2023/08/10 09:19:14;;;;;;;0.00;0.00;;;18.20;99.90;;;;;;5110099;27;20049;-68
2023/08/10 09:21:40;;;;;;;0.10;0.10;;;18.20;99.90;;;;;;5116184;27;20059;-69
2023/08/10 09:24:10;;;;;;;0.10;0.10;;;18.20;99.90;;;;;;5141719;27;20811;-68
2023/08/10 09:26:38;;;;;;;0.10;0.10;;;18.20;99.90;;;;;;5113943;27;20401;-68
2023/08/10 09:29:04;;;;;;;0.00;0.00;;;18.30;99.90;;;;;;5090611;27;20089;-69
2023/08/10 09:31:30;;;;;;;0.00;0.00;;;18.40;99.90;;;;;;5109969;27;20039;-69
2023/08/10 09:33:58;;;;;;;0.00;0.00;;;18.50;99.90;;;;;;5103410;27;20095;-69
2023/08/10 09:36:28;;;;;;;0.00;0.00;;;18.50;99.90;;;;;;5126296;27;20039;-68
2023/08/10 09:38:55;;;;;;;0.10;0.10;;;18.60;99.90;;;;;;5108422;27;20764;-69
2023/08/10 09:41:22;;;;;;;0.00;0.00;;;18.70;99.90;;;;;;5108917;27;20405;-68
2023/08/10 09:43:48;;;;;;;0.10;0.10;;;18.70;99.90;;;;;;5106608;27;20107;-68
2023/08/10 09:46:14;;;;;;;0.40;0.20;;;18.80;99.90;;;;;;5110989;27;20043;-68
2023/08/10 09:48:45;;;;;;;0.20;0.20;;;18.80;99.90;;;;;;5106096;27;20041;-68
2023/08/10 09:51:11;;;;;;;0.20;0.20;;;18.90;99.90;;;;;;5116721;27;20063;-68
2023/08/10 09:53:37;;;;;;;5.57;0.85;;;19.10;99.90;;;;;;5112694;27;20089;-68
2023/08/10 09:56:07;;;;;;;0.00;0.00;;;19.10;99.90;;;;;;5086387;28;20075;-68
2023/08/10 09:58:40;;;;;;;0.10;0.10;;;19.20;99.90;;;;;;5107002;27;20129;-68
2023/08/10 10:01:07;;;;;;;0.00;0.00;;;19.30;99.90;;;;;;5105084;28;20129;-68
2023/08/10 10:03:33;;;;;;;0.20;0.20;;;19.30;99.90;;;;;;5105755;27;20464;-68
2023/08/10 10:06:00;;;;;;;0.20;0.20;;;19.30;99.90;;;;;;5101196;28;20139;-68
2023/08/10 10:08:27;;;;;;;0.32;0.30;;;19.30;99.90;;;;;;5109495;27;20047;-68
2023/08/10 10:10:58;;;;;;;0.20;0.20;;;19.30;99.90;;;;;;5108539;27;20401;-68
2023/08/10 10:13:24;;;;;;;0.10;0.10;;;19.20;99.90;;;;;;5130603;27;20075;-68
2023/08/10 10:15:55;;;;;;;0.00;0.00;;;19.20;99.90;;;;;;5099500;28;20039;-68
2023/08/10 10:18:22;;;;;;;0.38;0.38;;;19.20;99.90;;;;;;5109864;27;20046;-67
2023/08/10 10:20:48;;;;;;;0.65;0.52;;;19.20;99.90;;;;;;5111814;27;20047;-68
2023/08/10 10:23:18;;;;;;;0.13;0.10;;;19.20;99.90;;;;;;5106852;28;20126;-68
2023/08/10 10:26:01;;;;;;;0.40;0.40;;;19.20;99.90;;;;;;5105718;28;20103;-68
2023/08/10 10:28:29;;;;;;;0.93;0.90;;;19.30;99.90;;;;;;5102540;28;20040;-67
2023/08/10 10:31:03;;;;;;;0.20;0.20;;;19.30;99.90;;;;;;5092470;28;20040;-68
2023/08/10 10:33:29;;;;;;;0.70;0.30;;;19.40;99.90;;;;;;5101581;28;20039;-68
2023/08/10 10:36:05;;;;;;;0.35;0.25;;;19.40;99.90;;;;;;5106444;28;20053;-68
2023/08/10 10:38:31;;;;;;;0.10;0.10;;;19.40;99.90;;;;;;5110984;28;20375;-68
2023/08/10 10:41:27;;;;;;;0.05;0.03;;;19.50;99.90;;;;;;5105922;28;20493;-67
2023/08/10 10:43:52;;;;;;;0.20;0.20;;;19.50;99.90;;;;;;5085540;28;20112;-68
2023/08/10 10:46:33;;;;;;;1.40;0.45;;;19.50;99.90;;;;;;5104824;28;20062;-68
2023/08/10 10:49:00;;;;;;;0.10;0.10;;;19.40;99.90;;;;;;5099899;28;20043;-68
2023/08/10 10:51:29;;;;;;;0.45;0.35;;;19.30;99.90;;;;;;5110018;28;20404;-68
2023/08/10 10:53:55;;;;;;;0.80;0.68;;;19.40;99.90;;;;;;5097528;28;20094;-68
2023/08/10 10:56:21;;;;;;;0.30;0.30;;;19.40;99.90;;;;;;5127525;28;20389;-68
2023/08/10 10:58:48;;;;;;;0.20;0.20;;;19.50;99.90;;;;;;5100184;28;20043;-68
2023/08/10 11:01:23;;;;;;;0.43;0.43;;;19.60;99.90;;;;;;5101711;28;20054;-68
2023/08/10 11:03:56;;;;;;;0.10;0.10;;;19.70;99.90;;;;;;5129360;27;20040;-68
2023/08/10 11:06:23;;;;;;;0.30;0.30;;;19.70;99.90;;;;;;5116853;27;20047;-68
2023/08/10 11:08:51;;;;;;;0.10;0.10;;;19.90;99.90;;;;;;5095268;28;20056;-68
2023/08/10 11:11:18;;;;;;;0.10;0.10;;;19.90;99.90;;;;;;5088825;28;20051;-68
2023/08/10 11:13:44;;;;;;;0.10;0.10;;;20.10;99.90;;;;;;5107414;28;20043;-67
2023/08/10 11:16:09;;;;;;;0.20;0.20;;;20.30;99.90;;;;;;5091339;28;20040;-68
2023/08/10 11:18:37;;;;;;;0.10;0.10;;;20.40;99.90;;;;;;5091256;28;20043;-68
2023/08/10 11:21:06;;;;;;;0.20;0.20;;;20.50;99.90;;;;;;5101752;28;20078;-69
2023/08/10 11:23:32;;;;;;;0.10;0.10;;;20.60;99.90;;;;;;5103340;28;20485;-68
2023/08/10 11:25:58;;;;;;;0.25;0.10;;;20.60;99.90;;;;;;5132227;27;20054;-69
2023/08/10 11:28:26;;;;;;;0.15;0.15;;;20.70;99.90;;;;;;5103553;27;20031;-69
2023/08/10 11:30:51;;;;;;;0.17;0.17;;;20.80;99.90;;;;;;5113494;27;20470;-69
2023/08/10 11:33:18;;;;;;;0.20;0.20;;;21.00;99.90;;;;;;5105131;27;20118;-69
2023/08/10 11:35:52;;;;;;;0.20;0.20;;;21.00;99.90;;;;;;5110321;27;20039;-69
2023/08/10 11:38:18;;;;;;;0.40;0.40;;;21.00;99.90;;;;;;5108716;27;20112;-68
2023/08/10 11:40:44;;;;;;;0.10;0.10;;;21.00;99.90;;;;;;5109392;27;20089;-69
2023/08/10 11:43:14;;;;;;;0.13;0.13;;;21.00;99.90;;;;;;5121209;27;20404;-68
2023/08/10 11:45:40;;;;;;;0.22;0.22;;;20.80;99.90;;;;;;5108410;28;20039;-68
2023/08/10 11:48:10;;;;;;;0.25;0.25;;;20.70;99.90;;;;;;5104016;28;20096;-69
2023/08/10 11:50:38;;;;;;;0.75;0.50;;;20.60;99.90;;;;;;5113514;27;20066;-68
2023/08/10 11:53:11;;;;;;;0.63;0.63;;;20.40;99.90;;;;;;5110422;27;20067;-68
2023/08/10 11:55:47;;;;;;;0.55;0.55;;;20.30;99.90;;;;;;5108019;27;20070;-69
2023/08/10 11:58:14;;;;;;;0.40;0.40;;;20.30;99.90;;;;;;5094480;28;20043;-69
2023/08/10 12:00:47;;;;;;;0.50;0.35;;;20.40;99.90;;;;;;5094994;27;20039;-69
2023/08/10 12:03:27;;;;;;;0.70;0.45;;;20.30;99.90;;;;;;5107043;27;20371;-68
2023/08/10 12:06:04;;;;;;;0.20;0.20;;;20.40;99.90;;;;;;5106917;27;20126;-69
2023/08/10 12:08:32;;;;;;;0.28;0.28;;;20.40;99.90;;;;;;5107588;27;20598;-70
2023/08/10 12:11:03;;;;;;;0.10;0.10;;;20.50;99.90;;;;;;5113657;27;20107;-69
2023/08/10 12:13:29;;;;;;;0.47;0.47;;;20.50;99.90;;;;;;5100880;27;20409;-68
2023/08/10 12:15:57;;;;;;;0.10;0.10;;;20.60;99.90;;;;;;5110773;27;20089;-69
2023/08/10 12:18:24;;;;;;;0.75;0.70;;;20.60;99.90;;;;;;5106268;27;20072;-69
2023/08/10 12:20:52;;;;;;;2.15;1.02;;;20.70;99.90;;;;;;5101242;27;20047;-68
2023/08/10 12:23:19;;;;;;;0.40;0.40;;;20.60;99.90;;;;;;5136068;27;20482;-68
2023/08/10 12:25:46;;;;;;;0.32;0.32;;;20.50;99.90;;;;;;5109286;27;20035;-69
2023/08/10 12:28:14;;;;;;;0.43;0.20;;;20.60;99.90;;;;;;5095996;27;20035;-69
2023/08/10 12:30:39;;;;;;;0.20;0.20;;;20.60;99.90;;;;;;5101140;27;20043;-68
2023/08/10 12:33:10;;;;;;;0.68;0.20;;;20.70;99.90;;;;;;5098763;27;20032;-69
2023/08/10 12:35:36;;;;;;;0.20;0.20;;;20.70;99.90;;;;;;5109009;27;20099;-69
2023/08/10 12:38:03;;;;;;;0.20;0.20;;;20.60;99.90;;;;;;5101733;27;20101;-68
2023/08/10 12:40:29;;;;;;;0.30;0.30;;;20.60;99.90;;;;;;5120294;27;20051;-69
2023/08/10 12:42:55;;;;;;;0.57;0.55;;;20.60;99.90;;;;;;5108240;27;20122;-68
2023/08/10 12:45:22;;;;;;;0.60;0.50;;;20.70;99.90;;;;;;5094949;28;20462;-68
2023/08/10 12:47:47;;;;;;;4.07;0.55;;;20.70;99.90;;;;;;5097386;27;20106;-68